Data for 01/05/2015

Time Sea-Level Adjusted Pressure Absolute Pressure Temperature Relative Humidity Dew Point   
(mb) (inHg) (mb) (inHg) (C) (F) (%) (C) (F)
00:05 1019 30.09 848 25.04 -12.8 8.9 81 -15.4 4.3
00:10 1019 30.09 848 25.04 -13.1 8.4 83 -15.5 4.2
00:15 1019 30.09 848 25.04 -13.3 8.1 83 -15.5 4
00:20 1019 30.09 848 25.04 -13.3 8 83 -15.6 4
00:25 1019 30.09 848 25.04 -13.3 8 84 -15.5 4.1
00:30 1019 30.09 848 25.04 -13.2 8.2 85 -15.3 4.5
00:35 1018 30.06 848 25.04 -13.1 8.5 84 -15.3 4.5
00:40 1018 30.06 847 25.01 -13 8.6 84 -15.2 4.6
00:45 1018 30.06 847 25.01 -12.9 8.8 84 -15 5
00:50 1018 30.06 847 25.01 -12.7 9.1 84 -15 5.1
00:55 1018 30.06 847 25.01 -12.7 9.2 84 -14.8 5.3
01:00 1017 30.03 847 25.01 -12.6 9.3 84 -14.7 5.5
01:05 1017 30.03 847 25.01 -12.5 9.5 84 -14.6 5.7
01:10 1017 30.03 846 24.98 -12.3 9.9 84 -14.4 6
01:15 1017 30.03 846 24.98 -12.2 10.1 85 -14.2 6.4
01:20 1017 30.03 846 24.98 -12.1 10.3 84 -14.2 6.5
01:25 1017 30.03 846 24.98 -12 10.5 84 -14.2 6.5
01:30 1017 30.03 846 24.98 -11.7 10.9 84 -13.8 7.1
01:35 1017 30.03 846 24.98 -11.5 11.4 84 -13.7 7.4
01:40 1017 30.03 846 24.98 -11.3 11.8 83 -13.5 7.6
01:45 1017 30.03 846 24.98 -11.1 11.9 83 -13.4 7.8
01:50 1017 30.03 846 24.98 -11.1 12.1 84 -13.3 8
01:55 1016 30 846 24.98 -11 12.2 83 -13.3 8
02:00 1016 30 845 24.95 -11 12.3 83 -13.3 8.1
02:05 1016 30 845 24.95 -10.9 12.4 83 -13.2 8.3
02:10 1016 30 845 24.95 -10.8 12.5 84 -13.1 8.5
02:15 1016 30 845 24.95 -10.8 12.5 84 -13.1 8.4
02:20 1016 30 845 24.95 -10.8 12.6 85 -12.9 8.8
02:25 1015 29.97 845 24.95 -10.6 12.9 86 -12.5 9.5
02:30 1015 29.97 845 24.95 -10.1 13.9 88 -11.6 11
02:35 1015 29.97 845 24.95 -8.9 16 87 -10.7 12.7
02:40 1015 29.97 844 24.92 -8.3 17 85 -10.4 13.3
02:45 1015 29.97 844 24.92 -8.2 17.2 83 -10.6 12.9
02:50 1015 29.97 845 24.95 -8.4 16.9 83 -10.7 12.7
02:55 1015 29.97 845 24.95 -8.4 16.9 82 -11 12.2
03:00 1015 29.97 845 24.95 -8.6 16.6 79 -11.5 11.3
03:05 1015 29.97 845 24.95 -8.9 15.9 83 -11.3 11.6
03:10 1015 29.97 845 24.95 -8.7 16.4 86 -10.7 12.8
03:15 1015 29.97 845 24.95 -8.4 16.9 85 -10.5 13
03:20 1015 29.97 845 24.95 -8.2 17.2 85 -10.3 13.5
03:25 1015 29.97 845 24.95 -8.1 17.4 82 -10.6 12.9
03:30 1016 30 845 24.95 -8.2 17.2 83 -10.6 13
03:35 1016 30 845 24.95 -8.2 17.2 83 -10.6 12.9
03:40 1015 29.97 845 24.95 -8.3 17.1 87 -10 14
03:45 1015 29.97 845 24.95 -7.6 18.3 90 -9 15.9
03:50 1015 29.97 845 24.95 -7.3 18.9 84 -9.5 14.9
03:55 1015 29.97 844 24.92 -7.4 18.6 84 -9.7 14.5
04:00 1015 29.97 844 24.92 -7.5 18.5 85 -9.6 14.7
04:05 1015 29.97 844 24.92 -7.4 18.7 88 -9 15.8
04:10 1015 29.97 844 24.92 -7.2 19 85 -9.4 15
04:15 1015 29.97 844 24.92 -6.7 19.9 93 -7.7 18.2
04:20 1015 29.97 844 24.92 -5.5 22.1 89 -7 19.4
04:25 1015 29.97 844 24.92 -5.3 22.5 87 -7.1 19.2
04:30 1015 29.97 844 24.92 -5.3 22.5 86 -7.2 19
04:35 1014 29.94 844 24.92 -4.4 24.1 86 -6.3 20.6
04:40 1014 29.94 844 24.92 -3.4 25.9 81 -6.2 20.9
04:45 1014 29.94 844 24.92 -3 26.7 78 -6.2 20.8
04:50 1014 29.94 843 24.89 -3.2 26.3 79 -6.4 20.5
04:55 1014 29.94 843 24.89 -3.7 25.4 82 -6.4 20.5
05:00 1014 29.94 843 24.89 -3.3 26 80 -6.2 20.8
05:05 1014 29.94 843 24.89 -2.7 27.1 78 -6.1 21
05:10 1014 29.94 843 24.89 -2.4 27.6 76 -6.1 21
05:15 1014 29.94 843 24.89 -2.7 27.1 78 -6.1 21.1
05:20 1014 29.94 843 24.89 -2.2 28.1 77 -5.7 21.7
05:25 1014 29.94 843 24.89 -2.1 28.3 75 -5.9 21.3
05:30 1014 29.94 843 24.89 -1.8 28.8 75 -5.6 21.8
05:35 1014 29.94 843 24.89 -1.7 29 74 -5.7 21.7
05:40 1014 29.94 843 24.89 -1.5 29.3 73 -5.6 21.9
05:45 1014 29.94 843 24.89 -1.8 28.8 75 -5.6 21.9
05:50 1014 29.94 843 24.89 -2 28.5 76 -5.7 21.7
05:55 1014 29.94 843 24.89 -1.7 29 75 -5.6 21.9
06:00 1014 29.94 843 24.89 -1.3 29.6 74 -5.4 22.2
06:05 1014 29.94 843 24.89 -1.3 29.7 73 -5.4 22.2
06:10 1014 29.94 843 24.89 -0.9 30.4 72 -5.3 22.4
06:15 1014 29.94 843 24.89 -0.5 31 70 -5.4 22.3
06:20 1014 29.94 843 24.89 -0.3 31.5 69 -5.3 22.5
06:25 1014 29.94 843 24.89 0.1 32.2 68 -5.2 22.7
06:30 1014 29.94 843 24.89 1 33.8 64 -5.1 22.9
06:35 1014 29.94 843 24.89 1 33.8 64 -5 22.9
06:40 1014 29.94 843 24.89 0.9 33.6 65 -4.9 23.1
06:45 1014 29.94 843 24.89 1 33.8 65 -4.8 23.3
06:50 1014 29.94 843 24.89 1.2 34.1 67 -4.2 24.4
06:55 1014 29.94 843 24.89 1 33.8 68 -4.2 24.5
07:00 1014 29.94 843 24.89 1 33.9 65 -4.7 23.5
07:05 1014 29.94 843 24.89 1 33.8 66 -4.6 23.8
07:10 1014 29.94 843 24.89 1.2 34.2 65 -4.7 23.5
07:15 1014 29.94 843 24.89 1.1 34 66 -4.6 23.7
07:20 1014 29.94 843 24.89 0.9 33.7 66 -4.7 23.5
07:25 1014 29.94 843 24.89 0.8 33.5 67 -4.6 23.7
07:30 1014 29.94 843 24.89 0.9 33.6 67 -4.5 23.8
07:35 1014 29.94 843 24.89 1.2 34.1 65 -4.8 23.4
07:40 1014 29.94 843 24.89 1.4 34.5 66 -4.3 24.2
07:45 1014 29.94 843 24.89 1.4 34.5 66 -4.3 24.2
07:50 1014 29.94 843 24.89 1.3 34.3 66 -4.3 24.2
07:55 1014 29.94 843 24.89 1.2 34.2 66 -4.4 24
08:00 1014 29.94 843 24.89 1.2 34.2 66 -4.4 24.1
08:05 1014 29.94 843 24.89 1 33.9 68 -4.3 24.2
08:10 1014 29.94 843 24.89 1 33.8 68 -4.3 24.3
08:15 1014 29.94 843 24.89 1.2 34.1 68 -4.1 24.6
08:20 1014 29.94 843 24.89 1.3 34.3 69 -3.8 25.1
08:25 1014 29.94 844 24.92 1.7 35 66 -3.9 24.9
08:30 1014 29.94 844 24.92 1.8 35.2 66 -3.8 25.1
08:35 1014 29.94 844 24.92 1.8 35.3 67 -3.7 25.4
08:40 1015 29.97 844 24.92 1.8 35.3 67 -3.6 25.6
08:45 1015 29.97 844 24.92 1.6 35 69 -3.5 25.7
08:50 1015 29.97 844 24.92 1.6 34.9 69 -3.5 25.6
08:55 1015 29.97 844 24.92 1.6 34.9 68 -3.6 25.5
09:00 1015 29.97 844 24.92 1.6 34.9 68 -3.6 25.4
09:05 1015 29.97 844 24.92 1.8 35.2 68 -3.6 25.6
09:10 1015 29.97 844 24.92 1.9 35.4 67 -3.5 25.6
09:15 1015 29.97 844 24.92 2.1 35.8 66 -3.6 25.5
09:20 1015 29.97 844 24.92 2.2 36 67 -3.3 26.1
09:25 1015 29.97 845 24.95 2.1 35.9 67 -3.4 25.9
09:30 1016 30 845 24.95 2.2 36 67 -3.2 26.2
09:35 1016 30 845 24.95 2.2 35.9 68 -3.1 26.4
09:40 1016 30 845 24.95 2.1 35.7 68 -3.1 26.4
09:45 1016 30 845 24.95 2.3 36.1 69 -2.9 26.8
09:50 1016 30 845 24.95 2.1 35.8 69 -3 26.6
09:55 1016 30 845 24.95 2 35.6 72 -2.5 27.5
10:00 1016 30 845 24.95 1.8 35.2 71 -2.9 26.8
10:05 1016 30 845 24.95 2 35.6 72 -2.6 27.3
10:10 1016 30 845 24.95 2.1 35.8 70 -2.9 26.8
10:15 1016 30 846 24.98 2.3 36.2 70 -2.5 27.4
10:20 1016 30 846 24.98 2.3 36.2 72 -2.2 28.1
10:25 1016 30 846 24.98 2.4 36.4 69 -2.6 27.3
10:30 1016 30 846 24.98 2.8 37 69 -2.3 27.9
10:35 1016 30 846 24.98 2.6 36.7 73 -1.8 28.7
10:40 1017 30.03 846 24.98 2.7 36.9 71 -2 28.3
10:45 1017 30.03 846 24.98 3 37.3 73 -1.4 29.5
10:50 1017 30.03 846 24.98 2.7 36.8 73 -1.8 28.8
10:55 1017 30.03 846 24.98 3 37.5 72 -1.6 29.2
11:00 1017 30.03 846 24.98 3.1 37.5 69 -2.1 28.2
11:05 1017 30.03 846 24.98 3.4 38.2 68 -1.9 28.6
11:10 1017 30.03 846 24.98 3.5 38.2 69 -1.7 29
11:15 1017 30.03 847 25.01 3.4 38 68 -1.9 28.6
11:20 1017 30.03 847 25.01 3.4 38.1 67 -2.1 28.1
11:25 1018 30.06 847 25.01 3.4 38.2 67 -2 28.4
11:30 1018 30.06 847 25.01 3.6 38.4 67 -2 28.4
11:35 1018 30.06 847 25.01 3.8 38.8 67 -1.9 28.6
11:40 1018 30.06 847 25.01 3.8 38.9 67 -1.8 28.7
11:45 1018 30.06 847 25.01 3.8 38.8 69 -1.4 29.5
11:50 1018 30.06 847 25.01 4 39.2 69 -1.2 29.9
11:55 1018 30.06 847 25.01 4.5 40.1 69 -0.6 30.8
12:00 1018 30.06 847 25.01 4.8 40.6 67 -0.7 30.7
12:05 1018 30.06 847 25.01 4.6 40.2 68 -0.9 30.4
12:10 1018 30.06 847 25.01 4.2 39.6 68 -1.1 30
12:15 1018 30.06 847 25.01 4.4 39.9 68 -1 30.1
12:20 1018 30.06 847 25.01 4.7 40.4 67 -1 30.2
12:25 1018 30.06 847 25.01 4.8 40.6 66 -1 30.2
12:30 1018 30.06 847 25.01 4.8 40.6 67 -0.8 30.5
12:35 1018 30.06 847 25.01 5 40.9 62 -1.7 29
12:40 1018 30.06 847 25.01 5.1 41.3 62 -1.5 29.4
12:45 1018 30.06 847 25.01 5.3 41.5 60 -1.8 28.8
12:50 1018 30.06 847 25.01 5.2 41.4 60 -2 28.4
12:55 1018 30.06 847 25.01 5.2 41.3 59 -2.1 28.2
13:00 1018 30.06 847 25.01 5 41 61 -1.9 28.5
13:05 1018 30.06 847 25.01 5 40.9 61 -2 28.4
13:10 1018 30.06 847 25.01 5.1 41.1 61 -1.8 28.8
13:15 1018 30.06 847 25.01 5.2 41.4 60 -2 28.5
13:20 1018 30.06 847 25.01 5.3 41.5 60 -1.8 28.8
13:25 1018 30.06 847 25.01 5.3 41.5 60 -1.8 28.7
13:30 1018 30.06 847 25.01 5.4 41.7 60 -1.8 28.8
13:35 1018 30.06 847 25.01 5.6 42 59 -1.8 28.8
13:40 1018 30.06 847 25.01 5.7 42.2 61 -1.3 29.6
13:45 1018 30.06 847 25.01 5.5 41.9 61 -1.5 29.3
13:50 1018 30.06 847 25.01 5.4 41.8 62 -1.3 29.6
13:55 1018 30.06 847 25.01 5.4 41.6 61 -1.6 29.1
14:00 1018 30.06 847 25.01 5.4 41.6 62 -1.4 29.5
14:05 1018 30.06 847 25.01 5.4 41.7 61 -1.6 29.2
14:10 1018 30.06 848 25.04 5.5 41.9 61 -1.4 29.4
14:15 1018 30.06 848 25.04 5.4 41.6 60 -1.7 29
14:20 1018 30.06 848 25.04 5.3 41.5 61 -1.6 29.2
14:25 1019 30.09 848 25.04 5.3 41.6 62 -1.5 29.4
14:30 1019 30.09 848 25.04 5.2 41.4 63 -1.3 29.7
14:35 1019 30.09 848 25.04 5.2 41.3 62 -1.5 29.3
14:40 1019 30.09 848 25.04 5.1 41.2 63 -1.4 29.6
14:45 1019 30.09 848 25.04 5 40.9 64 -1.4 29.6
14:50 1019 30.09 848 25.04 5 41.1 63 -1.4 29.4
14:55 1019 30.09 848 25.04 5 41 64 -1.3 29.6
15:00 1019 30.09 848 25.04 4.9 40.8 64 -1.3 29.7
15:05 1019 30.09 848 25.04 4.4 40 65 -1.5 29.3
15:10 1019 30.09 848 25.04 4 39.2 67 -1.6 29.1
15:15 1019 30.09 848 25.04 4 39.3 67 -1.6 29.1
15:20 1019 30.09 848 25.04 4.2 39.5 66 -1.5 29.2
15:25 1019 30.09 848 25.04 4.2 39.6 66 -1.5 29.3
15:30 1019 30.09 848 25.04 4.6 40.2 65 -1.4 29.5
15:35 1019 30.09 848 25.04 4.8 40.6 64 -1.5 29.3
15:40 1019 30.09 848 25.04 5 40.9 63 -1.4 29.5
15:45 1019 30.09 848 25.04 5.1 41.1 64 -1.3 29.7
15:50 1019 30.09 848 25.04 5.2 41.3 63 -1.4 29.6
15:55 1019 30.09 848 25.04 5.1 41.3 63 -1.3 29.7
16:00 1019 30.09 848 25.04 5.1 41.2 64 -1.2 29.8
16:05 1019 30.09 848 25.04 5 40.9 65 -1.1 30
16:10 1019 30.09 849 25.07 4.9 40.8 65 -1.1 30.1
16:15 1019 30.09 849 25.07 4.9 40.8 66 -0.9 30.3
16:20 1019 30.09 849 25.07 4.9 40.7 66 -0.9 30.3
16:25 1019 30.09 849 25.07 5 40.9 65 -1 30.2
16:30 1019 30.09 849 25.07 5 41 66 -0.8 30.6
16:35 1020 30.12 849 25.07 4.9 40.9 67 -0.7 30.7
16:40 1020 30.12 849 25.07 5 40.9 68 -0.5 31
16:45 1020 30.12 849 25.07 5 41 67 -0.6 31
16:50 1020 30.12 849 25.07 5.1 41.1 66 -0.7 30.8
16:55 1020 30.12 849 25.07 5 41 67 -0.5 31
17:00 1020 30.12 849 25.07 4.9 40.8 67 -0.7 30.8
17:05 1020 30.12 849 25.07 4.9 40.9 66 -0.9 30.4
17:10 1020 30.12 849 25.07 5.2 41.3 66 -0.6 30.9
17:15 1020 30.12 849 25.07 5.1 41.1 66 -0.7 30.8
17:20 1020 30.12 849 25.07 5.1 41.1 66 -0.7 30.8
17:25 1020 30.12 849 25.07 5.2 41.3 66 -0.7 30.8
17:30 1020 30.12 849 25.07 5.3 41.5 65 -0.9 30.5
17:35 1020 30.12 849 25.07 5.4 41.6 65 -0.8 30.6
17:40 1020 30.12 849 25.07 5.4 41.8 65 -0.6 30.9
17:45 1020 30.12 849 25.07 5.2 41.4 66 -0.6 30.9
17:50 1020 30.12 849 25.07 5.2 41.3 66 -0.7 30.8
17:55 1020 30.12 850 25.1 5.2 41.4 65 -0.7 30.8
18:00 1020 30.12 850 25.1 5.2 41.3 66 -0.6 31
18:05 1020 30.12 850 25.1 5.1 41.2 68 -0.3 31.5
18:10 1021 30.15 850 25.1 5.1 41.1 67 -0.5 31
18:15 1021 30.15 850 25.1 5.1 41.2 66 -0.8 30.5
18:20 1021 30.15 850 25.1 5.3 41.5 65 -0.7 30.8
18:25 1021 30.15 850 25.1 5.3 41.6 65 -0.8 30.6
18:30 1021 30.15 850 25.1 5.5 41.9 64 -0.7 30.7
18:35 1021 30.15 850 25.1 5.4 41.7 65 -0.6 30.9
18:40 1021 30.15 850 25.1 5.2 41.4 66 -0.7 30.8
18:45 1021 30.15 850 25.1 5.3 41.6 64 -1 30.2
18:50 1021 30.15 850 25.1 5.4 41.7 65 -0.6 31
18:55 1021 30.15 850 25.1 5 41.1 67 -0.5 31.1
19:00 1021 30.15 850 25.1 4.4 40 69 -0.7 30.7
19:05 1021 30.15 850 25.1 4.4 40 69 -0.8 30.5
19:10 1021 30.15 851 25.13 4.5 40.1 68 -0.8 30.6
19:15 1021 30.15 851 25.13 4.6 40.4 67 -0.9 30.4
19:20 1022 30.18 851 25.13 4.8 40.6 67 -0.9 30.4
19:25 1022 30.18 851 25.13 4.9 40.8 67 -0.7 30.7
19:30 1022 30.18 851 25.13 4.8 40.6 68 -0.7 30.8
19:35 1022 30.18 851 25.13 4.7 40.4 68 -0.8 30.6
19:40 1022 30.18 851 25.13 4.7 40.4 68 -0.8 30.6
19:45 1022 30.18 851 25.13 4.7 40.5 67 -1 30.2
19:50 1022 30.18 851 25.13 4.9 40.8 68 -0.5 31.1
19:55 1022 30.18 851 25.13 4.5 40.1 70 -0.5 31.1
20:00 1022 30.18 851 25.13 4.2 39.6 70 -0.7 30.7
20:05 1022 30.18 851 25.13 4.3 39.7 69 -0.8 30.5
20:10 1022 30.18 851 25.13 4.6 40.2 68 -0.8 30.6
20:15 1022 30.18 851 25.13 4.4 40 70 -0.6 30.9
20:20 1022 30.18 851 25.13 4.4 39.9 70 -0.7 30.8
20:25 1022 30.18 851 25.13 4.3 39.8 70 -0.6 30.9
20:30 1022 30.18 851 25.13 4.2 39.5 71 -0.7 30.8
20:35 1022 30.18 851 25.13 4.3 39.7 69 -0.9 30.3
20:40 1022 30.18 851 25.13 4.5 40.1 68 -0.8 30.5
20:45 1022 30.18 851 25.13 4.6 40.2 68 -0.7 30.7
20:50 1022 30.18 851 25.13 4.6 40.2 68 -0.9 30.4
20:55 1022 30.18 851 25.13 4.6 40.3 68 -0.8 30.6
21:00 1022 30.18 851 25.13 4.6 40.2 68 -0.7 30.7
21:05 1022 30.18 851 25.13 4.5 40.1 68 -0.8 30.5
21:10 1022 30.18 851 25.13 4.5 40.1 68 -0.8 30.5
21:15 1022 30.18 851 25.13 4.4 39.9 69 -0.8 30.5
21:20 1022 30.18 851 25.13 4.3 39.7 69 -0.8 30.6
21:25 1022 30.18 851 25.13 4.2 39.5 71 -0.7 30.7
21:30 1022 30.18 852 25.16 4 39.2 71 -0.8 30.6
21:35 1022 30.18 852 25.16 3.9 39 71 -0.8 30.5
21:40 1023 30.21 852 25.16 3.9 39.1 71 -0.8 30.5
21:45 1023 30.21 852 25.16 4 39.1 71 -0.9 30.5
21:50 1023 30.21 852 25.16 4.1 39.3 70 -0.9 30.4
21:55 1023 30.21 852 25.16 4.1 39.3 70 -0.8 30.5
22:00 1023 30.21 852 25.16 4.1 39.4 70 -0.8 30.5
22:05 1023 30.21 852 25.16 4.1 39.4 71 -0.8 30.6
22:10 1023 30.21 852 25.16 4.2 39.6 68 -1.1 30
22:15 1023 30.21 852 25.16 4.6 40.2 68 -0.9 30.4
22:20 1023 30.21 852 25.16 4.6 40.2 68 -0.9 30.4
22:25 1023 30.21 852 25.16 4.6 40.2 68 -0.8 30.5
22:30 1023 30.21 852 25.16 4.6 40.2 68 -0.8 30.5
22:35 1023 30.21 852 25.16 4.6 40.3 67 -1 30.3
22:40 1023 30.21 852 25.16 4.6 40.3 69 -0.7 30.8
22:45 1023 30.21 853 25.19 4.3 39.8 69 -0.9 30.4
22:50 1023 30.21 853 25.19 4.3 39.8 69 -0.9 30.4
22:55 1024 30.24 853 25.19 4.3 39.7 69 -0.9 30.4
23:00 1024 30.24 853 25.19 4.3 39.8 69 -1 30.3
23:05 1024 30.24 853 25.19 4.6 40.3 67 -1 30.2
23:10 1024 30.24 853 25.19 5.1 41.2 64 -1.1 30.1
23:15 1024 30.24 853 25.19 5.1 41.2 66 -0.7 30.8
23:20 1024 30.24 853 25.19 4.9 40.8 67 -0.8 30.5
23:25 1024 30.24 853 25.19 4.8 40.6 67 -0.8 30.6
23:30 1024 30.24 853 25.19 4.8 40.7 66 -0.9 30.4
23:35 1024 30.24 853 25.19 5.2 41.4 65 -0.8 30.5
23:40 1024 30.24 853 25.19 5.8 42.4 63 -0.7 30.7
23:45 1024 30.24 854 25.22 6.2 43.1 62 -0.7 30.8
23:50 1024 30.24 854 25.22 6.3 43.3 61 -0.6 30.9
23:55 1024 30.24 854 25.22 6.2 43.2 62 -0.5 31.1
24:00 1024 30.24 854 25.22 6.1 43.1 62 -0.5 31.1